Terminal Aerodrome Forecast
Issued by NWS Springfield, MO

Home | Current Version | Previous Version | Text Only | Print | Product List | Glossary On
Versions: 1 2 3 4 5 6 7 8 9 10 11 12 13 14 15 16 17 18 19 20 21 22 23 24 25 26 27 28 29
000
FTUS43 KSGF 270520
TAFSGF
TAF
KSGF 270520Z 2706/2806 17012KT P6SM VCTS OVC150CB
     FM270700 17012KT P6SM BKN090
     FM271400 17014KT P6SM -SHRA VCTS OVC020CB
     FM271600 17014G22KT P6SM -SHRA VCTS BKN035CB
     FM280000 16015KT P6SM BKN050=

USA.gov is the U.S. government's official web portal to all federal, state and local government web resources and services.